Time;durP1;ratioP1;P1;durP2;ratioP2;P2;SDS_P1;SDS_P2;PMS_P1;PMS_P2;Temp;Humidity;BMP_temperature;BMP_pressure;BME280_temperature;BME280_humidity;BME280_pressure;Samples;Min_cycle;Max_cycle;Signal;HPM_P1;HPM_P2
2020/12/19 00:00:18;;;;;;;18.52;7.83;;;;;;;3.46;87.87;98994.11;1774148;79;21131;-70
2020/12/19 00:02:49;;;;;;;19.00;8.20;;;;;;;3.48;87.55;98992.28;1773907;81;21187;-69
2020/12/19 00:05:17;;;;;;;15.20;7.67;;;;;;;3.44;87.83;98988.20;1773814;81;21131;-72
2020/12/19 00:07:45;;;;;;;19.45;8.48;;;;;;;3.45;87.86;98988.58;1773496;81;21663;-69
2020/12/19 00:10:13;;;;;;;17.95;7.15;;;;;;;3.49;87.66;98991.39;1773537;81;21136;-66
2020/12/19 00:12:45;;;;;;;20.23;8.48;;;;;;;3.53;87.45;98992.91;1773633;80;21139;-65
2020/12/19 00:15:16;;;;;;;22.35;7.10;;;;;;;3.52;87.56;98997.65;1773992;81;21270;-65
2020/12/19 00:17:45;;;;;;;20.85;6.97;;;;;;;3.56;87.32;98997.44;1773290;80;21568;-65
2020/12/19 00:20:13;;;;;;;22.25;7.12;;;;;;;3.60;87.24;99000.23;1773924;81;21558;-66
2020/12/19 00:22:46;;;;;;;17.50;7.35;;;;;;;3.55;87.33;99003.47;1773739;80;21167;-66
2020/12/19 00:25:14;;;;;;;17.67;6.67;;;;;;;3.57;87.38;99000.84;1773677;80;21140;-66
2020/12/19 00:27:44;;;;;;;18.10;6.80;;;;;;;3.56;87.38;99000.45;1774073;81;21136;-65
2020/12/19 00:30:12;;;;;;;12.98;7.53;;;;;;;3.57;87.31;99004.24;1773735;81;21171;-66
2020/12/19 00:32:41;;;;;;;14.18;5.65;;;;;;;3.61;87.05;99003.64;1774349;81;21246;-70
2020/12/19 00:35:10;;;;;;;17.27;6.20;;;;;;;3.68;86.82;99010.14;1773727;81;21116;-69
2020/12/19 00:37:43;;;;;;;9.65;5.97;;;;;;;3.73;86.78;99008.19;1774137;80;21139;-68
2020/12/19 00:40:11;;;;;;;15.90;6.25;;;;;;;3.75;86.66;99003.79;1773528;80;21140;-70
2020/12/19 00:42:39;;;;;;;12.00;5.70;;;;;;;3.81;86.52;99007.36;1773564;81;21529;-69
2020/12/19 00:45:08;;;;;;;15.90;6.75;;;;;;;3.83;86.36;99002.97;1773908;81;21176;-69
2020/12/19 00:47:38;;;;;;;11.83;6.12;;;;;;;3.82;86.28;99000.84;1773259;80;21235;-70
2020/12/19 00:50:08;;;;;;;15.72;6.70;;;;;;;3.73;86.20;98987.64;1773867;81;21204;-70
2020/12/19 00:52:37;;;;;;;12.60;5.90;;;;;;;3.72;86.45;99002.66;1773765;79;21163;-69
2020/12/19 00:55:06;;;;;;;11.80;5.30;;;;;;;3.80;86.26;99005.24;1773886;81;21573;-69
2020/12/19 00:57:35;;;;;;;15.03;5.92;;;;;;;3.81;86.19;99006.08;1774004;81;21737;-70
2020/12/19 01:00:09;;;;;;;13.13;5.90;;;;;;;3.78;86.24;99007.03;1773828;81;21141;-69
2020/12/19 01:02:38;;;;;;;13.40;6.50;;;;;;;3.81;86.25;99008.16;1773730;81;21139;-72
2020/12/19 01:05:09;;;;;;;14.13;6.53;;;;;;;3.79;86.21;99007.42;1734500;82;21531;-69
2020/12/19 01:07:38;;;;;;;10.45;6.97;;;;;;;3.78;86.35;99002.34;1774154;79;21203;-71
2020/12/19 01:10:10;;;;;;;12.78;4.33;;;;;;;3.78;86.27;98998.05;1773859;81;21152;-72
2020/12/19 01:12:38;;;;;;;19.37;6.70;;;;;;;3.77;86.32;99001.52;1774056;81;21556;-70
2020/12/19 01:15:10;;;;;;;13.78;5.28;;;;;;;3.71;86.59;98998.42;1773715;80;21139;-69
2020/12/19 01:17:40;;;;;;;13.15;5.87;;;;;;;3.69;86.88;99001.53;1773731;80;21561;-68
2020/12/19 01:20:08;;;;;;;11.75;5.05;;;;;;;3.70;86.91;98992.90;1773566;80;21164;-69
2020/12/19 01:22:36;;;;;;;15.32;6.62;;;;;;;3.72;86.79;98997.52;1773730;81;21139;-69
2020/12/19 01:25:04;;;;;;;20.97;8.05;;;;;;;3.68;86.83;98997.30;1773622;80;21164;-69
2020/12/19 01:27:32;;;;;;;14.50;5.67;;;;;;;3.62;87.18;98993.75;1773910;81;21306;-69
2020/12/19 01:30:00;;;;;;;17.48;7.00;;;;;;;3.64;87.23;98995.78;1773695;81;21215;-69
2020/12/19 01:32:28;;;;;;;14.87;6.45;;;;;;;3.54;87.83;98990.72;1773909;81;21278;-69
2020/12/19 01:34:56;;;;;;;18.62;7.37;;;;;;;3.62;87.63;98989.91;1773688;81;21155;-69
2020/12/19 01:37:26;;;;;;;9.25;4.67;;;;;;;3.59;87.76;98992.59;1774038;81;21140;-69
2020/12/19 01:39:55;;;;;;;17.40;6.72;;;;;;;3.59;87.87;98990.02;1773700;81;21108;-65
2020/12/19 01:42:23;;;;;;;13.38;5.92;;;;;;;3.64;87.75;98990.64;1773829;80;21135;-65
2020/12/19 01:44:51;;;;;;;15.85;7.40;;;;;;;3.67;87.73;98988.75;1773830;81;21220;-67
2020/12/19 01:47:21;;;;;;;19.30;7.37;;;;;;;3.72;87.63;98994.95;1773849;81;21127;-66
2020/12/19 01:49:49;;;;;;;13.05;5.70;;;;;;;3.66;87.75;98989.65;1774299;80;21128;-66
2020/12/19 01:52:21;;;;;;;18.95;6.65;;;;;;;3.72;87.60;98994.95;1774166;80;21159;-65
2020/12/19 01:54:50;;;;;;;16.37;6.30;;;;;;;3.67;87.60;98987.92;1773769;80;21127;-66
2020/12/19 01:57:20;;;;;;;21.55;7.97;;;;;;;3.63;87.98;98989.80;1773643;79;21179;-68
2020/12/19 01:59:48;;;;;;;23.83;8.65;;;;;;;3.63;88.07;98991.54;1754423;81;21207;-66
2020/12/19 02:02:20;;;;;;;24.75;8.20;;;;;;;3.65;87.84;98988.45;1773920;80;21639;-65
2020/12/19 02:04:48;;;;;;;29.18;8.70;;;;;;;3.67;87.95;98988.75;1773896;81;21097;-65
2020/12/19 02:07:18;;;;;;;28.32;9.50;;;;;;;3.63;88.02;98983.39;1774013;81;21127;-66
2020/12/19 02:09:45;;;;;;;19.07;6.78;;;;;;;3.62;88.13;98991.19;1773559;79;21643;-65
2020/12/19 02:12:14;;;;;;;21.02;7.72;;;;;;;3.67;87.86;98982.78;1773536;81;21208;-66
2020/12/19 02:14:42;;;;;;;17.25;7.60;;;;;;;3.65;88.01;98979.47;1773483;81;21172;-66
2020/12/19 02:17:15;;;;;;;18.87;7.65;;;;;;;3.69;87.92;98984.84;1773498;80;21160;-65
2020/12/19 02:19:43;;;;;;;24.52;8.73;;;;;;;3.66;88.09;98980.66;1773786;80;21128;-65
2020/12/19 02:22:11;;;;;;;19.30;8.75;;;;;;;3.65;88.35;98976.90;1773663;80;21108;-65
2020/12/19 02:24:39;;;;;;;19.05;7.28;;;;;;;3.63;88.44;98976.97;1773892;81;21660;-68
2020/12/19 02:27:07;;;;;;;21.95;7.35;;;;;;;3.65;88.21;98977.73;1773780;81;21176;-67
2020/12/19 02:29:35;;;;;;;19.10;7.80;;;;;;;3.64;88.50;98975.23;1773847;81;21164;-68
2020/12/19 02:32:03;;;;;;;16.17;6.35;;;;;;;3.67;88.11;98980.21;1773347;81;21136;-67
2020/12/19 02:34:31;;;;;;;18.50;6.50;;;;;;;3.68;88.04;98980.15;1773981;79;21147;-67
2020/12/19 02:36:59;;;;;;;21.00;7.95;;;;;;;3.70;88.03;98982.63;1774058;80;21298;-67
2020/12/19 02:39:35;;;;;;;26.15;8.80;;;;;;;3.69;88.28;98980.98;1774460;81;21242;-67
2020/12/19 02:42:03;;;;;;;29.85;8.88;;;;;;;3.68;88.60;98983.16;1774131;80;21266;-67
2020/12/19 02:44:31;;;;;;;24.45;9.35;;;;;;;3.63;89.13;98979.98;1774490;81;21199;-67
2020/12/19 02:47:00;;;;;;;21.80;9.70;;;;;;;3.61;89.31;98975.39;1774314;81;21131;-67
2020/12/19 02:49:27;;;;;;;25.68;10.03;;;;;;;3.60;89.49;98975.84;1780131;80;21207;-70
2020/12/19 02:51:56;;;;;;;21.93;8.53;;;;;;;3.55;89.82;98978.23;1782363;80;21588;-71
2020/12/19 02:54:24;;;;;;;27.40;7.17;;;;;;;3.53;90.09;98975.77;1782197;80;21226;-71
2020/12/19 02:56:52;;;;;;;25.90;9.38;;;;;;;3.54;89.81;98974.03;1782595;80;21532;-70
2020/12/19 02:59:20;;;;;;;16.70;7.53;;;;;;;3.47;90.52;98975.20;1782740;80;21202;-71
2020/12/19 03:01:47;;;;;;;21.25;7.72;;;;;;;3.48;90.19;98971.30;1782009;80;21560;-71
2020/12/19 03:04:16;;;;;;;19.87;7.15;;;;;;;3.50;90.12;98969.95;1782089;80;21242;-71
2020/12/19 03:06:43;;;;;;;21.68;8.60;;;;;;;3.52;90.08;98971.97;1781628;80;21178;-71
2020/12/19 03:09:11;;;;;;;24.05;8.15;;;;;;;3.47;90.27;98964.48;1782342;79;21203;-69
2020/12/19 03:11:39;;;;;;;23.95;7.65;;;;;;;3.47;90.53;98966.22;1781996;79;21167;-70
2020/12/19 03:14:07;;;;;;;22.55;7.15;;;;;;;3.50;90.18;98955.83;1782381;80;21207;-66
2020/12/19 03:16:35;;;;;;;17.62;6.85;;;;;;;3.45;90.72;98959.05;1782342;79;21508;-66
2020/12/19 03:19:03;;;;;;;20.70;7.28;;;;;;;3.54;89.99;98955.57;1782341;80;21517;-66
2020/12/19 03:21:31;;;;;;;23.75;8.58;;;;;;;3.54;90.30;98949.63;1782127;80;21592;-66
2020/12/19 03:23:59;;;;;;;26.50;8.78;;;;;;;3.55;90.33;98948.70;1781945;80;21184;-67
2020/12/19 03:26:27;;;;;;;19.92;7.20;;;;;;;3.55;90.57;98948.70;1781982;80;21144;-66
2020/12/19 03:28:55;;;;;;;18.62;7.90;;;;;;;3.56;90.54;98951.66;1782248;79;21262;-69
2020/12/19 03:31:24;;;;;;;21.37;6.62;;;;;;;3.57;90.74;98950.76;1782662;80;21144;-68
2020/12/19 03:33:52;;;;;;;18.30;7.55;;;;;;;3.60;90.44;98948.03;1782290;80;21149;-68
2020/12/19 03:36:20;;;;;;;16.15;7.70;;;;;;;3.64;90.27;98945.69;1782137;80;21140;-68
2020/12/19 03:38:48;;;;;;;10.93;5.80;;;;;;;3.59;90.19;98949.77;1782252;80;21128;-68
2020/12/19 03:41:17;;;;;;;14.15;6.30;;;;;;;3.70;89.85;98951.34;1782243;79;21144;-70
2020/12/19 03:43:45;;;;;;;13.95;6.95;;;;;;;3.78;89.62;98940.23;1782496;80;21139;-69
2020/12/19 03:46:15;;;;;;;14.93;7.95;;;;;;;3.83;89.35;98939.56;1782239;80;21139;-67
2020/12/19 03:48:43;;;;;;;11.88;6.45;;;;;;;3.88;89.09;98938.50;1779582;80;21148;-67
2020/12/19 03:51:11;;;;;;;12.55;6.22;;;;;;;3.92;88.94;98935.70;1773740;81;21135;-67
2020/12/19 03:53:39;;;;;;;15.60;7.00;;;;;;;3.91;88.72;98939.63;1773733;80;21132;-67
2020/12/19 03:56:08;;;;;;;16.27;6.35;;;;;;;3.81;88.86;98927.72;1774584;80;21373;-67
2020/12/19 03:58:36;;;;;;;11.25;5.78;;;;;;;3.82;88.72;98931.92;1774130;79;21128;-67
2020/12/19 04:01:03;;;;;;;15.78;6.55;;;;;;;3.78;88.87;98929.96;1774099;81;21211;-67
2020/12/19 04:03:31;;;;;;;16.20;8.13;;;;;;;3.79;88.95;98933.37;1774767;81;21274;-70
2020/12/19 04:06:00;;;;;;;12.63;6.78;;;;;;;3.72;88.89;98931.57;1775087;81;21227;-68
2020/12/19 04:08:28;;;;;;;10.68;5.80;;;;;;;3.78;88.92;98929.13;1774830;81;21155;-67
2020/12/19 04:10:56;;;;;;;20.12;6.55;;;;;;;3.80;88.92;98930.73;1774666;80;21607;-68
2020/12/19 04:13:25;;;;;;;13.78;5.42;;;;;;;3.75;89.12;98930.12;1773945;80;21568;-68
2020/12/19 04:15:53;;;;;;;19.55;7.25;;;;;;;3.77;88.98;98929.58;1773717;80;21568;-67
2020/12/19 04:18:21;;;;;;;12.23;6.85;;;;;;;3.84;89.02;98933.98;1773921;80;21136;-67
2020/12/19 04:20:49;;;;;;;12.07;6.55;;;;;;;3.89;88.92;98929.89;1774272;81;21243;-67
2020/12/19 04:23:17;;;;;;;14.78;5.97;;;;;;;3.92;88.74;98933.59;1773638;79;21540;-67
2020/12/19 04:25:45;;;;;;;11.55;5.12;;;;;;;3.91;88.70;98926.33;1773885;81;21163;-68
2020/12/19 04:28:13;;;;;;;15.40;6.62;;;;;;;3.99;88.58;98930.62;1773708;81;21128;-67
2020/12/19 04:30:41;;;;;;;12.88;6.17;;;;;;;4.02;88.38;98939.45;1773804;81;21179;-67
2020/12/19 04:33:09;;;;;;;15.40;6.45;;;;;;;3.97;88.34;98936.77;1773888;80;21144;-67
2020/12/19 04:35:36;;;;;;;11.45;5.58;;;;;;;3.80;88.75;98932.02;1773851;81;21132;-67
2020/12/19 04:38:05;;;;;;;8.90;5.35;;;;;;;3.90;88.58;98932.37;1773511;79;21124;-67
2020/12/19 04:40:33;;;;;;;17.27;7.35;;;;;;;3.89;88.73;98929.41;1773296;81;21179;-67
2020/12/19 04:43:14;;;;;;;9.13;5.05;;;;;;;3.77;89.20;98930.06;1773564;79;21526;-67
2020/12/19 04:45:48;;;;;;;17.60;7.50;;;;;;;3.82;88.84;98930.63;1773594;81;21132;-68
2020/12/19 04:48:19;;;;;;;16.20;6.45;;;;;;;3.74;89.38;98941.75;1773636;81;21140;-68
2020/12/19 04:50:48;;;;;;;15.20;5.90;;;;;;;3.76;89.29;98939.95;1776535;81;21140;-67
2020/12/19 04:56:03;;;;;;;17.98;6.47;;;;;;;3.77;89.07;98931.34;1754317;82;21154;-68
2020/12/19 04:58:31;;;;;;;10.55;5.80;;;;;;;3.75;89.31;98938.28;1727493;82;21687;-67
2020/12/19 05:00:59;;;;;;;14.30;6.50;;;;;;;3.77;89.20;98940.33;1687961;83;21218;-67
2020/12/19 05:03:27;;;;;;;19.92;7.20;;;;;;;3.67;89.55;98939.11;1754841;82;21209;-67
2020/12/19 05:05:55;;;;;;;19.92;8.95;;;;;;;3.78;89.20;98940.69;1754522;82;21161;-70
2020/12/19 05:08:23;;;;;;;17.67;7.20;;;;;;;3.74;89.35;98946.44;1754396;82;21189;-70
2020/12/19 05:10:52;;;;;;;19.02;7.22;;;;;;;3.77;89.10;98945.47;1755012;82;21178;-70
2020/12/19 05:13:23;;;;;;;16.25;6.80;;;;;;;3.78;89.11;98948.39;1754374;82;21161;-70
2020/12/19 05:15:51;;;;;;;12.45;7.47;;;;;;;3.74;89.35;98946.88;1755098;82;21134;-67
2020/12/19 05:18:20;;;;;;;17.70;8.00;;;;;;;3.66;89.76;98949.00;1754711;82;21161;-68
2020/12/19 05:20:48;;;;;;;20.08;8.58;;;;;;;3.69;89.40;98947.14;1754802;82;21562;-66
2020/12/19 05:23:18;;;;;;;20.20;8.70;;;;;;;3.65;89.75;98947.36;1722261;82;21169;-67
2020/12/19 05:25:46;;;;;;;17.05;7.97;;;;;;;3.57;90.08;98947.73;1746662;81;21308;-67
2020/12/19 05:28:15;;;;;;;17.15;8.10;;;;;;;3.53;90.08;98949.24;1720087;82;21177;-67
2020/12/19 05:30:43;;;;;;;18.45;8.33;;;;;;;3.43;91.04;98949.30;1746736;82;21227;-67
2020/12/19 05:33:11;;;;;;;16.30;6.40;;;;;;;3.53;90.31;98951.36;1746971;81;21315;-67
2020/12/19 05:35:39;;;;;;;23.50;8.83;;;;;;;3.48;90.51;98953.31;1747040;81;21157;-68
2020/12/19 05:38:08;;;;;;;19.90;7.35;;;;;;;3.51;90.69;98956.17;1747290;81;21300;-68
2020/12/19 05:43:15;;;;;;;16.60;7.60;;;;;;;3.54;90.34;98956.05;1656914;85;21352;-69
2020/12/19 05:45:43;;;;;;;17.92;7.90;;;;;;;3.45;91.06;98962.45;1707775;83;21262;-68
2020/12/19 05:48:11;;;;;;;19.55;9.00;;;;;;;3.49;90.87;98962.69;1707277;84;21234;-72
2020/12/19 05:50:41;;;;;;;17.25;7.47;;;;;;;3.47;91.03;98968.78;1707720;84;21179;-71
2020/12/19 05:53:10;;;;;;;18.27;7.70;;;;;;;3.49;90.82;98967.83;1707359;83;21191;-72
2020/12/19 05:55:38;;;;;;;15.15;6.67;;;;;;;3.45;91.06;98968.88;1707369;83;21207;-71
2020/12/19 05:58:06;;;;;;;16.95;7.25;;;;;;;3.42;91.08;98969.48;1707498;84;21144;-72
2020/12/19 06:00:34;;;;;;;17.85;7.17;;;;;;;3.42;91.15;98969.03;1707691;84;21191;-70
2020/12/19 06:03:05;;;;;;;22.05;7.95;;;;;;;3.42;91.18;98974.17;1707288;83;21168;-71
2020/12/19 06:05:34;;;;;;;21.02;8.28;;;;;;;3.47;90.93;98976.48;1707260;84;21620;-71
2020/12/19 06:08:06;;;;;;;15.65;7.12;;;;;;;3.39;91.60;98979.42;1706139;83;21180;-70
2020/12/19 06:10:34;;;;;;;11.50;7.42;;;;;;;3.44;91.59;98982.61;1707806;84;21290;-70
2020/12/19 06:13:16;;;;;;;14.68;8.15;;;;;;;3.47;91.44;98982.91;1708009;84;21160;-71
2020/12/19 06:16:10;;;;;;;7.90;5.00;;;;;;;3.49;91.23;98983.68;1707469;83;21239;-67
2020/12/19 06:19:01;;;;;;;13.83;5.35;;;;;;;3.58;90.91;98981.97;1707918;83;21833;-69
2020/12/19 06:21:31;;;;;;;12.03;4.92;;;;;;;3.60;90.91;98987.39;1701805;84;21163;-67
2020/12/19 06:23:59;;;;;;;14.58;5.75;;;;;;;3.60;90.90;98983.99;1707857;83;21309;-68
2020/12/19 06:26:38;;;;;;;16.90;7.45;;;;;;;3.67;90.71;98981.05;1708830;83;21251;-71
2020/12/19 06:29:06;;;;;;;13.38;6.85;;;;;;;3.62;90.86;98980.91;1722165;82;21284;-67
2020/12/19 06:31:34;;;;;;;12.23;5.80;;;;;;;3.61;91.08;98986.95;1721676;82;21291;-68
2020/12/19 06:34:04;;;;;;;11.40;4.95;;;;;;;3.65;91.02;98984.16;1721929;82;21193;-67
2020/12/19 06:36:33;;;;;;;13.55;7.80;;;;;;;3.72;90.83;98988.53;1722171;83;21149;-71
2020/12/19 06:39:29;;;;;;;11.00;6.28;;;;;;;3.63;90.84;98988.52;1722443;82;21153;-67
2020/12/19 06:41:58;;;;;;;13.22;7.47;;;;;;;3.73;90.43;98990.20;1690997;85;21180;-68
2020/12/19 06:44:53;;;;;;;15.95;6.65;;;;;;;3.70;90.81;98986.03;1691451;85;21592;-68
2020/12/19 06:47:21;;;;;;;12.28;5.85;;;;;;;3.79;90.48;98988.60;1675071;85;21223;-67
2020/12/19 06:49:52;;;;;;;9.38;5.42;;;;;;;3.87;90.19;98995.48;1676342;85;21192;-67
2020/12/19 06:52:23;;;;;;;9.58;4.92;;;;;;;3.81;90.11;98999.66;1676312;85;21249;-67
2020/12/19 06:54:52;;;;;;;9.05;5.20;;;;;;;3.90;90.06;98995.33;1676470;85;21195;-70
2020/12/19 06:57:32;;;;;;;10.88;5.47;;;;;;;3.93;89.89;98996.93;1676552;85;21169;-68
2020/12/19 07:00:24;;;;;;;12.15;5.20;;;;;;;3.93;89.75;98991.79;1676958;85;21169;-68
2020/12/19 07:02:56;;;;;;;11.28;5.03;;;;;;;4.00;89.73;99001.69;1676560;85;21145;-68
2020/12/19 07:05:49;;;;;;;14.93;5.80;;;;;;;4.02;89.42;99001.59;1676617;85;21172;-68
2020/12/19 07:08:29;;;;;;;8.30;4.97;;;;;;;3.98;89.70;98999.62;1709451;83;21181;-68
2020/12/19 07:10:58;;;;;;;13.08;5.95;;;;;;;4.02;89.43;98999.02;1709606;84;21184;-70
2020/12/19 07:14:06;;;;;;;9.65;4.28;;;;;;;3.97;89.40;99000.53;1685979;84;21140;-70
2020/12/19 07:17:14;;;;;;;8.20;5.03;;;;;;;3.98;89.12;98994.94;1674772;84;21328;-70
2020/12/19 07:19:46;;;;;;;15.98;4.35;;;;;;;4.02;88.96;98995.16;1762132;81;21520;-70
2020/12/19 07:22:14;;;;;;;10.65;5.60;;;;;;;4.07;88.72;98988.06;1761762;81;21214;-70
2020/12/19 07:24:42;;;;;;;8.63;4.92;;;;;;;4.03;88.84;98993.81;1761836;81;21178;-70
2020/12/19 07:27:10;;;;;;;12.60;4.80;;;;;;;4.12;88.68;98984.37;1761422;81;21226;-71
2020/12/19 07:29:38;;;;;;;11.18;4.78;;;;;;;4.08;89.17;98986.71;1761911;81;21171;-70
2020/12/19 07:32:06;;;;;;;6.83;4.10;;;;;;;4.11;88.89;98986.55;1761844;81;21239;-71
2020/12/19 07:34:34;;;;;;;7.78;4.47;;;;;;;4.13;88.70;98986.45;1761837;81;21183;-70
2020/12/19 07:37:03;;;;;;;10.70;5.75;;;;;;;4.20;88.49;98982.69;1762050;81;21206;-71
2020/12/19 07:39:31;;;;;;;9.90;6.28;;;;;;;4.19;88.22;98984.42;1761639;81;21158;-71
2020/12/19 07:42:09;;;;;;;11.08;6.28;;;;;;;4.25;88.15;98990.53;1761770;81;21178;-71
2020/12/19 07:44:38;;;;;;;13.48;7.15;;;;;;;4.21;87.95;98982.59;1761664;81;21120;-70
2020/12/19 07:47:13;;;;;;;13.25;7.83;;;;;;;4.18;88.51;98982.75;1761566;81;21155;-70
2020/12/19 07:49:47;;;;;;;16.12;7.20;;;;;;;4.11;88.21;98980.13;1761470;81;21154;-69
2020/12/19 07:52:25;;;;;;;13.58;6.97;;;;;;;4.10;88.50;98973.77;1761604;81;21140;-70
2020/12/19 07:54:58;;;;;;;12.75;6.62;;;;;;;4.01;88.94;98976.34;1761662;81;21178;-70
2020/12/19 07:57:34;;;;;;;12.60;6.83;;;;;;;4.07;88.44;98971.36;1760686;81;21197;-69
2020/12/19 08:00:04;;;;;;;11.30;5.75;;;;;;;4.06;88.40;98973.55;1761803;81;21176;-69
2020/12/19 08:02:38;;;;;;;11.70;5.87;;;;;;;4.02;88.84;98975.89;1761633;81;21234;-71
2020/12/19 08:05:06;;;;;;;13.30;6.08;;;;;;;4.04;88.73;98980.06;1761669;81;21191;-70
2020/12/19 08:07:33;;;;;;;13.10;5.75;;;;;;;4.00;89.17;98979.00;1761698;81;21147;-70
2020/12/19 08:12:47;;;;;;;9.58;6.50;;;;;;;3.97;89.61;98970.97;1714622;84;21678;-70
2020/12/19 08:15:23;;;;;;;13.55;7.15;;;;;;;3.84;90.08;98969.95;1715196;84;21623;-69
2020/12/19 08:18:00;;;;;;;14.50;6.22;;;;;;;3.91;89.81;98970.46;1715402;83;21240;-70
2020/12/19 08:20:35;;;;;;;11.70;5.22;;;;;;;4.01;89.36;98972.48;1695463;83;21607;-69
2020/12/19 08:23:07;;;;;;;;;;;;;;;4.05;89.13;98979.58;1682892;85;21152;-71
2020/12/19 08:25:36;;;;;;;12.70;5.70;;;;;;;4.05;88.86;98975.73;1677336;85;20155;-70
2020/12/19 08:28:04;;;;;;;9.98;6.67;;;;;;;3.91;89.31;98979.45;1680705;85;21163;-72
2020/12/19 08:30:33;;;;;;;11.35;5.83;;;;;;;3.92;89.16;98981.13;1680797;85;21196;-71
2020/12/19 08:33:08;;;;;;;9.27;4.70;;;;;;;4.00;88.76;98982.41;1680838;85;21144;-70
2020/12/19 08:35:42;;;;;;;12.35;4.87;;;;;;;4.04;88.65;98979.23;1680961;85;21100;-71
2020/12/19 08:38:26;;;;;;;12.45;5.50;;;;;;;3.99;88.80;98986.33;1681145;85;21134;-69
2020/12/19 08:40:56;;;;;;;14.15;5.85;;;;;;;4.03;88.54;98978.39;1681127;85;21136;-71
2020/12/19 08:43:34;;;;;;;9.65;4.97;;;;;;;4.07;88.57;98974.77;1680763;85;21167;-72
2020/12/19 08:46:12;;;;;;;11.43;5.97;;;;;;;4.07;88.38;98970.91;1681097;85;21215;-68
2020/12/19 08:48:42;;;;;;;13.32;7.17;;;;;;;4.02;88.79;98972.03;1680917;85;21136;-68
2020/12/19 08:51:18;;;;;;;13.90;6.87;;;;;;;4.00;89.14;98964.87;1680602;85;21203;-70
2020/12/19 08:53:53;;;;;;;11.73;5.97;;;;;;;4.05;88.80;98970.59;1699841;82;21328;-68
2020/12/19 08:56:27;;;;;;;11.00;6.22;;;;;;;4.08;88.34;98973.86;1738378;82;21188;-70
2020/12/19 08:58:56;;;;;;;13.13;6.22;;;;;;;4.09;88.75;98966.95;1782467;80;21132;-68
2020/12/19 09:01:24;;;;;;;13.18;6.22;;;;;;;4.08;88.53;98965.31;1782222;80;21239;-69
2020/12/19 09:03:54;;;;;;;11.80;5.35;;;;;;;4.11;88.39;98963.42;1782363;80;21152;-67
2020/12/19 09:06:22;;;;;;;11.12;7.05;;;;;;;4.09;88.24;98961.36;1782178;80;21246;-68
2020/12/19 09:08:50;;;;;;;13.68;8.00;;;;;;;4.07;88.10;98961.91;1782183;79;21171;-75
2020/12/19 09:11:27;;;;;;;9.20;5.08;;;;;;;4.04;89.24;98956.09;1775320;79;21517;-66
2020/12/19 09:14:13;;;;;;;12.00;7.25;;;;;;;4.12;88.46;98960.39;1768841;80;21801;-67
2020/12/19 09:16:50;;;;;;;6.75;4.92;;;;;;;4.19;88.89;98960.45;1782032;80;21564;-69
2020/12/19 09:19:20;;;;;;;18.80;9.75;;;;;;;4.24;88.71;98961.05;1779205;80;21136;-69
2020/12/19 09:22:03;;;;;;;10.28;5.08;;;;;;;4.27;88.40;98960.89;1782338;80;21253;-67
2020/12/19 09:24:31;;;;;;;11.25;4.33;;;;;;;4.37;87.99;98959.94;1769706;80;21151;-67
2020/12/19 09:26:59;;;;;;;9.03;5.28;;;;;;;4.34;87.48;98948.54;1771646;79;21580;-67
2020/12/19 09:29:27;;;;;;;5.97;3.40;;;;;;;4.35;87.72;98954.90;1772558;79;21245;-66
2020/12/19 09:31:55;;;;;;;5.58;3.45;;;;;;;4.44;87.46;98954.39;1782422;80;21164;-67
2020/12/19 09:34:24;;;;;;;7.65;3.37;;;;;;;4.44;87.19;98951.83;1782563;80;21141;-67
2020/12/19 09:36:53;;;;;;;5.83;3.87;;;;;;;4.45;86.73;98951.38;1788267;80;21136;-67
2020/12/19 09:39:21;;;;;;;7.45;3.45;;;;;;;4.47;86.59;98947.83;1787155;79;22592;-68
2020/12/19 09:41:49;;;;;;;3.65;2.72;;;;;;;4.49;86.77;98945.99;1782044;80;21191;-68
2020/12/19 09:44:17;;;;;;;6.47;3.98;;;;;;;4.63;86.70;98949.13;1761780;80;21147;-68
2020/12/19 09:46:46;;;;;;;8.05;3.72;;;;;;;4.62;85.99;98947.47;1780886;80;21132;-68
2020/12/19 09:49:15;;;;;;;7.12;3.20;;;;;;;4.66;85.99;98948.97;1782466;79;21178;-69
2020/12/19 09:51:42;;;;;;;11.85;4.72;;;;;;;4.67;85.94;98948.86;1778903;80;21613;-69
2020/12/19 09:57:37;;;;;;;7.55;3.85;;;;;;;4.58;86.00;98945.97;1778319;81;21549;-68
2020/12/19 10:00:12;;;;;;;7.30;4.10;;;;;;;4.55;86.70;98942.28;1710888;80;21156;-68
2020/12/19 10:03:02;;;;;;;7.40;3.65;;;;;;;4.61;85.95;98940.66;1695531;83;21201;-64
2020/12/19 10:05:31;;;;;;;6.37;4.28;;;;;;;4.64;85.89;98943.89;1677542;82;21588;-65
2020/12/19 10:07:59;;;;;;;8.00;4.10;;;;;;;4.66;85.53;98938.67;1686564;82;21200;-68
2020/12/19 10:10:29;;;;;;;6.25;4.28;;;;;;;4.57;85.84;98937.41;1684414;82;21624;-68
2020/12/19 10:12:57;;;;;;;7.00;4.28;;;;;;;4.65;85.77;98937.00;1705099;81;21174;-67
2020/12/19 10:15:30;;;;;;;5.33;3.42;;;;;;;4.68;85.58;98935.55;1771844;80;21148;-69
2020/12/19 10:17:58;;;;;;;6.25;3.90;;;;;;;4.47;86.10;98929.83;1778647;80;21143;-65
2020/12/19 10:20:26;;;;;;;7.97;3.95;;;;;;;4.47;86.01;98928.54;1781434;80;21596;-66
2020/12/19 10:22:54;;;;;;;7.40;4.20;;;;;;;4.44;86.33;98928.68;1769644;79;21160;-65
2020/12/19 10:25:22;;;;;;;10.08;4.42;;;;;;;4.47;86.09;98927.25;1771628;79;21223;-65
2020/12/19 10:28:12;;;;;;;9.88;4.92;;;;;;;4.36;86.76;98926.16;1780947;79;21105;-65
2020/12/19 10:30:40;;;;;;;11.35;4.55;;;;;;;4.40;86.49;98925.09;1690303;83;21201;-66
2020/12/19 10:33:08;;;;;;;10.40;5.55;;;;;;;4.50;86.14;98923.23;1694708;83;21142;-65
2020/12/19 10:35:36;;;;;;;7.15;4.50;;;;;;;4.41;86.63;98917.72;1682984;83;21131;-65
2020/12/19 10:38:04;;;;;;;9.85;5.08;;;;;;;4.53;86.55;98918.36;1691045;83;21593;-69
2020/12/19 10:40:32;;;;;;;11.73;5.42;;;;;;;4.53;86.54;98916.63;1685734;83;21194;-65
2020/12/19 10:43:00;;;;;;;13.93;7.12;;;;;;;4.43;86.30;98912.06;1684516;83;21763;-71
2020/12/19 10:45:28;;;;;;;13.20;6.05;;;;;;;4.39;86.54;98917.83;1686653;83;21301;-65
2020/12/19 10:47:56;;;;;;;8.85;5.35;;;;;;;4.34;86.60;98910.80;1682563;83;21162;-68
2020/12/19 10:50:24;;;;;;;12.28;5.70;;;;;;;4.32;87.14;98912.61;1685091;83;21146;-65
2020/12/19 10:52:52;;;;;;;10.75;4.75;;;;;;;4.32;86.96;98914.38;1683526;83;21184;-68
2020/12/19 10:55:20;;;;;;;9.70;4.53;;;;;;;4.37;86.77;98918.80;1684138;83;21341;-67
2020/12/19 10:57:48;;;;;;;11.15;4.62;;;;;;;4.32;86.83;98913.89;1682991;83;21189;-66
2020/12/19 11:00:18;;;;;;;7.95;4.37;;;;;;;4.35;86.51;98912.92;1705328;83;21758;-65
2020/12/19 11:02:46;;;;;;;7.92;4.30;;;;;;;4.36;86.35;98908.16;1690099;83;21342;-65
2020/12/19 11:05:14;;;;;;;11.00;5.95;;;;;;;4.39;86.53;98910.11;1678535;83;21227;-65
2020/12/19 11:07:42;;;;;;;5.42;4.12;;;;;;;4.30;86.88;98906.73;1681692;83;21234;-65
2020/12/19 11:10:11;;;;;;;8.58;5.28;;;;;;;4.33;86.82;98909.58;1700294;83;21190;-68
2020/12/19 11:12:39;;;;;;;8.20;4.72;;;;;;;4.26;86.90;98902.20;1694309;83;21289;-64
2020/12/19 11:15:07;;;;;;;9.68;4.37;;;;;;;4.32;87.29;98902.32;1680344;83;21206;-66
2020/12/19 11:17:37;;;;;;;9.38;5.35;;;;;;;4.29;87.72;98899.92;1681811;84;21187;-65
2020/12/19 11:20:06;;;;;;;17.77;8.30;;;;;;;4.26;87.67;98903.49;1684109;83;21220;-64
2020/12/19 11:22:34;;;;;;;10.93;6.53;;;;;;;4.34;87.21;98904.83;1679628;83;21626;-64
2020/12/19 11:25:02;;;;;;;10.68;5.58;;;;;;;4.22;87.86;98904.56;1689045;83;21680;-65
2020/12/19 11:27:30;;;;;;;9.60;4.72;;;;;;;4.28;87.69;98907.25;1683175;83;21199;-65
2020/12/19 11:29:58;;;;;;;10.40;5.47;;;;;;;4.29;87.80;98899.47;1683577;83;21631;-68
2020/12/19 11:32:26;;;;;;;11.63;5.72;;;;;;;4.20;87.66;98903.80;1676250;85;21602;-69
2020/12/19 11:34:54;;;;;;;11.93;5.37;;;;;;;4.13;87.77;98905.03;1655479;86;21189;-69
2020/12/19 11:37:22;;;;;;;10.68;5.53;;;;;;;4.25;87.74;98909.53;1679111;84;21166;-68
2020/12/19 11:39:51;;;;;;;16.10;6.80;;;;;;;4.26;87.91;98910.37;1679205;84;21228;-69
2020/12/19 11:42:22;;;;;;;10.25;5.90;;;;;;;4.20;88.08;98915.36;1679178;85;21158;-68
2020/12/19 11:44:50;;;;;;;10.18;4.83;;;;;;;4.15;88.39;98909.66;1678754;84;21297;-68
2020/12/19 11:47:18;;;;;;;7.15;4.08;;;;;;;4.25;88.02;98915.12;1679672;84;21372;-68
2020/12/19 11:49:46;;;;;;;7.40;3.75;;;;;;;4.32;87.67;98911.80;1677210;84;21174;-68
2020/12/19 11:52:14;;;;;;;7.00;4.58;;;;;;;4.30;87.86;98913.99;1675806;84;21150;-69
2020/12/19 11:54:43;;;;;;;7.60;4.22;;;;;;;4.34;87.54;98906.11;1673522;85;21182;-69
2020/12/19 11:57:11;;;;;;;8.53;5.00;;;;;;;4.35;87.46;98905.20;1677596;85;21210;-68
2020/12/19 11:59:39;;;;;;;7.05;4.10;;;;;;;4.27;87.41;98907.73;1678637;85;21169;-68
2020/12/19 12:02:08;;;;;;;5.87;3.95;;;;;;;4.30;87.74;98910.59;1678868;85;21639;-68